Harvey, Michigan
Current Conditions -  °F | °C
As of 7:50 PM on Thursday 27 Nov 2014 (Local Time) from KSAW Reporting Station
Scattered Clouds Scattered Clouds  
Wind Chill: -9°   Ceiling: Unl
Heat Index:   Visibility: 10mi
Dew Point: -2°   Wind: 7mph
Humidity: 78%   Direction: 290°WNW
Pressure: 30.29"   Gusts: NA
Location:  46.5095°N, 87.3836°W
Report Text: KSAW 280050Z 29006KT 10SM SCT027 M16/M19 A3029
Loading
Personal Weather Stations






























Interactive Weather Map New forecast layout! Learn more

10-Day Weather Forecast

Advertisements
Track Severe Weather on mobile